sensor_id;sensor_type;location;lat;lon;timestamp;P1;durP1;ratioP1;P2;durP2;ratioP2
9222;SDS011;7557;51.698;3.942;2022-08-19T00:01:29;40.72;;;31.40;;
9222;SDS011;7557;51.698;3.942;2022-08-19T00:03:57;36.88;;;29.92;;
9222;SDS011;7557;51.698;3.942;2022-08-19T00:06:25;35.17;;;27.13;;
9222;SDS011;7557;51.698;3.942;2022-08-19T00:08:53;33.90;;;25.92;;
9222;SDS011;7557;51.698;3.942;2022-08-19T00:11:22;29.55;;;25.27;;
9222;SDS011;7557;51.698;3.942;2022-08-19T00:13:51;24.27;;;21.90;;
9222;SDS011;7557;51.698;3.942;2022-08-19T00:16:19;28.85;;;22.67;;
9222;SDS011;7557;51.698;3.942;2022-08-19T00:18:47;25.45;;;22.85;;
9222;SDS011;7557;51.698;3.942;2022-08-19T00:21:15;26.52;;;22.42;;
9222;SDS011;7557;51.698;3.942;2022-08-19T00:23:43;26.15;;;23.33;;
9222;SDS011;7557;51.698;3.942;2022-08-19T00:26:10;32.83;;;25.83;;
9222;SDS011;7557;51.698;3.942;2022-08-19T00:28:39;34.35;;;27.00;;
9222;SDS011;7557;51.698;3.942;2022-08-19T00:31:07;36.78;;;28.85;;
9222;SDS011;7557;51.698;3.942;2022-08-19T00:33:35;37.60;;;27.83;;
9222;SDS011;7557;51.698;3.942;2022-08-19T00:36:04;39.40;;;30.85;;
9222;SDS011;7557;51.698;3.942;2022-08-19T00:38:34;37.05;;;29.35;;
9222;SDS011;7557;51.698;3.942;2022-08-19T00:41:03;35.10;;;28.80;;
9222;SDS011;7557;51.698;3.942;2022-08-19T00:43:31;39.13;;;31.75;;
9222;SDS011;7557;51.698;3.942;2022-08-19T00:46:00;40.25;;;31.58;;
9222;SDS011;7557;51.698;3.942;2022-08-19T00:48:30;40.60;;;29.70;;
9222;SDS011;7557;51.698;3.942;2022-08-19T00:50:58;40.05;;;30.55;;
9222;SDS011;7557;51.698;3.942;2022-08-19T00:53:27;35.05;;;28.67;;
9222;SDS011;7557;51.698;3.942;2022-08-19T00:55:58;34.25;;;29.23;;
9222;SDS011;7557;51.698;3.942;2022-08-19T00:58:30;37.42;;;28.90;;
9222;SDS011;7557;51.698;3.942;2022-08-19T01:01:02;35.78;;;26.40;;
9222;SDS011;7557;51.698;3.942;2022-08-19T01:03:31;32.50;;;26.08;;
9222;SDS011;7557;51.698;3.942;2022-08-19T01:05:58;29.38;;;24.23;;
9222;SDS011;7557;51.698;3.942;2022-08-19T01:08:26;31.95;;;24.90;;
9222;SDS011;7557;51.698;3.942;2022-08-19T01:10:54;29.35;;;24.20;;
9222;SDS011;7557;51.698;3.942;2022-08-19T01:13:25;30.27;;;24.25;;
9222;SDS011;7557;51.698;3.942;2022-08-19T01:15:56;32.83;;;25.02;;
9222;SDS011;7557;51.698;3.942;2022-08-19T01:18:27;36.42;;;27.80;;
9222;SDS011;7557;51.698;3.942;2022-08-19T01:20:55;40.15;;;29.63;;
9222;SDS011;7557;51.698;3.942;2022-08-19T01:23:28;45.10;;;31.85;;
9222;SDS011;7557;51.698;3.942;2022-08-19T01:26:09;43.90;;;32.00;;
9222;SDS011;7557;51.698;3.942;2022-08-19T01:28:39;47.08;;;33.92;;
9222;SDS011;7557;51.698;3.942;2022-08-19T01:31:07;44.33;;;32.63;;
9222;SDS011;7557;51.698;3.942;2022-08-19T01:33:37;50.72;;;36.47;;
9222;SDS011;7557;51.698;3.942;2022-08-19T01:36:06;49.28;;;36.10;;
9222;SDS011;7557;51.698;3.942;2022-08-19T01:38:38;50.35;;;37.58;;
9222;SDS011;7557;51.698;3.942;2022-08-19T01:41:07;47.10;;;35.95;;
9222;SDS011;7557;51.698;3.942;2022-08-19T01:43:35;58.60;;;40.70;;
9222;SDS011;7557;51.698;3.942;2022-08-19T01:46:03;57.47;;;40.83;;
9222;SDS011;7557;51.698;3.942;2022-08-19T01:48:34;56.47;;;39.58;;
9222;SDS011;7557;51.698;3.942;2022-08-19T01:51:04;59.03;;;40.30;;
9222;SDS011;7557;51.698;3.942;2022-08-19T01:53:31;52.85;;;37.22;;
9222;SDS011;7557;51.698;3.942;2022-08-19T01:56:01;57.13;;;38.40;;
9222;SDS011;7557;51.698;3.942;2022-08-19T01:58:30;51.85;;;37.45;;
9222;SDS011;7557;51.698;3.942;2022-08-19T02:01:03;51.17;;;35.55;;
9222;SDS011;7557;51.698;3.942;2022-08-19T02:03:31;57.30;;;37.90;;
9222;SDS011;7557;51.698;3.942;2022-08-19T02:06:00;51.60;;;37.90;;
9222;SDS011;7557;51.698;3.942;2022-08-19T02:08:30;49.97;;;37.72;;
9222;SDS011;7557;51.698;3.942;2022-08-19T02:11:00;52.78;;;38.05;;
9222;SDS011;7557;51.698;3.942;2022-08-19T02:13:28;53.08;;;35.97;;
9222;SDS011;7557;51.698;3.942;2022-08-19T02:15:55;48.90;;;36.13;;
9222;SDS011;7557;51.698;3.942;2022-08-19T02:18:23;52.00;;;35.40;;
9222;SDS011;7557;51.698;3.942;2022-08-19T02:20:51;49.30;;;35.97;;
9222;SDS011;7557;51.698;3.942;2022-08-19T02:23:19;45.75;;;34.25;;
9222;SDS011;7557;51.698;3.942;2022-08-19T02:25:47;45.55;;;32.83;;
9222;SDS011;7557;51.698;3.942;2022-08-19T02:28:16;46.28;;;34.33;;
9222;SDS011;7557;51.698;3.942;2022-08-19T02:30:43;47.85;;;34.90;;
9222;SDS011;7557;51.698;3.942;2022-08-19T02:33:11;44.80;;;34.42;;
9222;SDS011;7557;51.698;3.942;2022-08-19T02:35:40;51.08;;;35.38;;
9222;SDS011;7557;51.698;3.942;2022-08-19T02:38:09;45.38;;;32.80;;
9222;SDS011;7557;51.698;3.942;2022-08-19T02:40:55;50.95;;;33.60;;
9222;SDS011;7557;51.698;3.942;2022-08-19T02:43:25;44.13;;;31.77;;
9222;SDS011;7557;51.698;3.942;2022-08-19T02:45:54;41.30;;;31.83;;
9222;SDS011;7557;51.698;3.942;2022-08-19T02:48:22;45.55;;;33.15;;
9222;SDS011;7557;51.698;3.942;2022-08-19T02:50:51;41.90;;;30.95;;
9222;SDS011;7557;51.698;3.942;2022-08-19T02:53:20;47.40;;;33.75;;
9222;SDS011;7557;51.698;3.942;2022-08-19T02:55:48;44.08;;;31.90;;
9222;SDS011;7557;51.698;3.942;2022-08-19T02:58:17;44.60;;;30.30;;
9222;SDS011;7557;51.698;3.942;2022-08-19T03:00:47;42.75;;;30.90;;
9222;SDS011;7557;51.698;3.942;2022-08-19T03:03:17;40.72;;;29.73;;
9222;SDS011;7557;51.698;3.942;2022-08-19T03:05:44;38.58;;;30.13;;
9222;SDS011;7557;51.698;3.942;2022-08-19T03:08:12;44.47;;;30.60;;
9222;SDS011;7557;51.698;3.942;2022-08-19T03:10:41;43.72;;;29.63;;
9222;SDS011;7557;51.698;3.942;2022-08-19T03:13:12;39.50;;;30.73;;
9222;SDS011;7557;51.698;3.942;2022-08-19T03:15:41;38.42;;;28.98;;
9222;SDS011;7557;51.698;3.942;2022-08-19T03:18:12;43.53;;;30.13;;
9222;SDS011;7557;51.698;3.942;2022-08-19T03:24:05;41.72;;;26.73;;
9222;SDS011;7557;51.698;3.942;2022-08-19T03:26:37;40.80;;;26.65;;
9222;SDS011;7557;51.698;3.942;2022-08-19T03:29:05;39.15;;;26.20;;
9222;SDS011;7557;51.698;3.942;2022-08-19T03:31:35;41.90;;;25.85;;
9222;SDS011;7557;51.698;3.942;2022-08-19T03:34:05;35.67;;;24.95;;
9222;SDS011;7557;51.698;3.942;2022-08-19T03:36:32;43.15;;;26.40;;
9222;SDS011;7557;51.698;3.942;2022-08-19T03:39:00;39.40;;;24.45;;
9222;SDS011;7557;51.698;3.942;2022-08-19T03:41:28;38.03;;;24.23;;
9222;SDS011;7557;51.698;3.942;2022-08-19T03:43:57;37.08;;;25.00;;
9222;SDS011;7557;51.698;3.942;2022-08-19T03:46:26;38.03;;;24.00;;
9222;SDS011;7557;51.698;3.942;2022-08-19T03:48:56;34.50;;;25.00;;
9222;SDS011;7557;51.698;3.942;2022-08-19T03:51:27;33.58;;;23.92;;
9222;SDS011;7557;51.698;3.942;2022-08-19T03:53:57;34.72;;;24.13;;
9222;SDS011;7557;51.698;3.942;2022-08-19T03:56:27;39.53;;;23.65;;
9222;SDS011;7557;51.698;3.942;2022-08-19T03:58:57;38.17;;;24.27;;
9222;SDS011;7557;51.698;3.942;2022-08-19T04:01:26;35.70;;;23.42;;
9222;SDS011;7557;51.698;3.942;2022-08-19T04:03:57;34.83;;;23.15;;
9222;SDS011;7557;51.698;3.942;2022-08-19T04:06:28;33.83;;;23.15;;
9222;SDS011;7557;51.698;3.942;2022-08-19T04:08:57;30.05;;;21.75;;
9222;SDS011;7557;51.698;3.942;2022-08-19T04:11:27;33.17;;;22.55;;
9222;SDS011;7557;51.698;3.942;2022-08-19T04:13:57;37.00;;;23.70;;
9222;SDS011;7557;51.698;3.942;2022-08-19T04:16:25;39.28;;;24.35;;
9222;SDS011;7557;51.698;3.942;2022-08-19T04:18:55;37.00;;;24.25;;
9222;SDS011;7557;51.698;3.942;2022-08-19T04:21:25;32.55;;;22.83;;
9222;SDS011;7557;51.698;3.942;2022-08-19T04:23:55;30.45;;;22.95;;
9222;SDS011;7557;51.698;3.942;2022-08-19T04:26:24;38.08;;;23.42;;
9222;SDS011;7557;51.698;3.942;2022-08-19T04:28:52;35.63;;;22.50;;
9222;SDS011;7557;51.698;3.942;2022-08-19T04:31:21;34.67;;;23.17;;
9222;SDS011;7557;51.698;3.942;2022-08-19T04:33:51;33.30;;;22.35;;
9222;SDS011;7557;51.698;3.942;2022-08-19T04:36:22;33.97;;;21.55;;
9222;SDS011;7557;51.698;3.942;2022-08-19T04:38:54;30.02;;;21.00;;
9222;SDS011;7557;51.698;3.942;2022-08-19T04:41:22;29.63;;;20.08;;
9222;SDS011;7557;51.698;3.942;2022-08-19T04:44:07;26.58;;;19.95;;
9222;SDS011;7557;51.698;3.942;2022-08-19T04:46:35;28.25;;;20.27;;
9222;SDS011;7557;51.698;3.942;2022-08-19T04:49:03;30.85;;;20.30;;
9222;SDS011;7557;51.698;3.942;2022-08-19T04:51:32;30.83;;;20.35;;
9222;SDS011;7557;51.698;3.942;2022-08-19T04:54:02;32.38;;;21.08;;
9222;SDS011;7557;51.698;3.942;2022-08-19T04:56:31;30.17;;;20.08;;
9222;SDS011;7557;51.698;3.942;2022-08-19T04:58:58;27.85;;;19.20;;
9222;SDS011;7557;51.698;3.942;2022-08-19T05:01:28;34.03;;;21.38;;
9222;SDS011;7557;51.698;3.942;2022-08-19T05:03:59;36.13;;;20.95;;
9222;SDS011;7557;51.698;3.942;2022-08-19T05:06:29;33.65;;;20.63;;
9222;SDS011;7557;51.698;3.942;2022-08-19T05:08:58;28.77;;;19.98;;
9222;SDS011;7557;51.698;3.942;2022-08-19T05:11:28;26.95;;;20.35;;
9222;SDS011;7557;51.698;3.942;2022-08-19T05:14:00;31.02;;;20.42;;
9222;SDS011;7557;51.698;3.942;2022-08-19T05:16:27;29.00;;;19.58;;
9222;SDS011;7557;51.698;3.942;2022-08-19T05:18:55;32.17;;;18.90;;
9222;SDS011;7557;51.698;3.942;2022-08-19T05:21:40;33.50;;;19.65;;
9222;SDS011;7557;51.698;3.942;2022-08-19T05:24:26;25.65;;;18.98;;
9222;SDS011;7557;51.698;3.942;2022-08-19T05:26:55;26.08;;;18.30;;
9222;SDS011;7557;51.698;3.942;2022-08-19T05:29:24;29.63;;;18.40;;
9222;SDS011;7557;51.698;3.942;2022-08-19T05:31:52;24.02;;;18.25;;
9222;SDS011;7557;51.698;3.942;2022-08-19T05:34:21;22.77;;;17.85;;
9222;SDS011;7557;51.698;3.942;2022-08-19T05:36:53;27.48;;;17.60;;
9222;SDS011;7557;51.698;3.942;2022-08-19T05:39:23;23.27;;;17.23;;
9222;SDS011;7557;51.698;3.942;2022-08-19T05:41:52;25.05;;;17.70;;
9222;SDS011;7557;51.698;3.942;2022-08-19T05:44:23;23.88;;;17.05;;
9222;SDS011;7557;51.698;3.942;2022-08-19T05:46:51;22.98;;;15.50;;
9222;SDS011;7557;51.698;3.942;2022-08-19T05:49:20;20.42;;;16.55;;
9222;SDS011;7557;51.698;3.942;2022-08-19T05:51:48;22.38;;;16.13;;
9222;SDS011;7557;51.698;3.942;2022-08-19T05:54:16;22.45;;;15.35;;
9222;SDS011;7557;51.698;3.942;2022-08-19T05:56:44;27.33;;;16.33;;
9222;SDS011;7557;51.698;3.942;2022-08-19T05:59:14;23.83;;;15.55;;
9222;SDS011;7557;51.698;3.942;2022-08-19T06:01:44;22.58;;;16.35;;
9222;SDS011;7557;51.698;3.942;2022-08-19T06:04:16;18.30;;;14.18;;
9222;SDS011;7557;51.698;3.942;2022-08-19T06:06:44;18.80;;;13.55;;
9222;SDS011;7557;51.698;3.942;2022-08-19T06:09:13;17.92;;;14.07;;
9222;SDS011;7557;51.698;3.942;2022-08-19T06:11:42;20.05;;;14.23;;
9222;SDS011;7557;51.698;3.942;2022-08-19T06:14:11;22.33;;;14.20;;
9222;SDS011;7557;51.698;3.942;2022-08-19T06:16:46;19.67;;;13.90;;
9222;SDS011;7557;51.698;3.942;2022-08-19T06:19:14;17.83;;;13.00;;
9222;SDS011;7557;51.698;3.942;2022-08-19T06:21:45;16.48;;;14.13;;
9222;SDS011;7557;51.698;3.942;2022-08-19T06:24:15;17.27;;;12.30;;
9222;SDS011;7557;51.698;3.942;2022-08-19T06:26:44;15.50;;;11.90;;
9222;SDS011;7557;51.698;3.942;2022-08-19T06:29:16;19.90;;;11.35;;
9222;SDS011;7557;51.698;3.942;2022-08-19T06:31:45;18.63;;;12.45;;
9222;SDS011;7557;51.698;3.942;2022-08-19T06:34:14;15.90;;;11.30;;
9222;SDS011;7557;51.698;3.942;2022-08-19T06:36:43;17.35;;;10.73;;
9222;SDS011;7557;51.698;3.942;2022-08-19T06:39:14;12.48;;;9.57;;
9222;SDS011;7557;51.698;3.942;2022-08-19T06:41:45;13.93;;;10.93;;
9222;SDS011;7557;51.698;3.942;2022-08-19T06:44:16;11.45;;;10.25;;
9222;SDS011;7557;51.698;3.942;2022-08-19T06:46:43;13.38;;;10.70;;
9222;SDS011;7557;51.698;3.942;2022-08-19T06:49:11;10.55;;;9.48;;
9222;SDS011;7557;51.698;3.942;2022-08-19T06:51:40;11.40;;;8.95;;
9222;SDS011;7557;51.698;3.942;2022-08-19T06:54:08;12.15;;;9.95;;
9222;SDS011;7557;51.698;3.942;2022-08-19T06:56:36;11.77;;;9.95;;
9222;SDS011;7557;51.698;3.942;2022-08-19T06:59:05;13.30;;;9.70;;
9222;SDS011;7557;51.698;3.942;2022-08-19T07:01:36;10.98;;;9.55;;
9222;SDS011;7557;51.698;3.942;2022-08-19T07:04:06;14.40;;;9.35;;
9222;SDS011;7557;51.698;3.942;2022-08-19T07:06:34;14.38;;;9.65;;
9222;SDS011;7557;51.698;3.942;2022-08-19T07:09:03;13.88;;;9.48;;
9222;SDS011;7557;51.698;3.942;2022-08-19T07:11:34;12.82;;;9.88;;
9222;SDS011;7557;51.698;3.942;2022-08-19T07:14:02;18.52;;;9.35;;
9222;SDS011;7557;51.698;3.942;2022-08-19T07:16:31;9.65;;;8.55;;
9222;SDS011;7557;51.698;3.942;2022-08-19T07:19:00;10.48;;;9.40;;
9222;SDS011;7557;51.698;3.942;2022-08-19T07:21:27;14.10;;;8.68;;
9222;SDS011;7557;51.698;3.942;2022-08-19T07:23:55;10.55;;;8.93;;
9222;SDS011;7557;51.698;3.942;2022-08-19T07:26:24;11.18;;;9.48;;
9222;SDS011;7557;51.698;3.942;2022-08-19T07:28:53;8.10;;;7.30;;
9222;SDS011;7557;51.698;3.942;2022-08-19T07:31:22;5.75;;;5.18;;
9222;SDS011;7557;51.698;3.942;2022-08-19T07:33:52;5.95;;;4.70;;
9222;SDS011;7557;51.698;3.942;2022-08-19T07:36:24;7.65;;;5.75;;
9222;SDS011;7557;51.698;3.942;2022-08-19T07:38:56;6.68;;;5.20;;
9222;SDS011;7557;51.698;3.942;2022-08-19T07:41:25;7.53;;;5.63;;
9222;SDS011;7557;51.698;3.942;2022-08-19T07:43:56;5.93;;;5.20;;
9222;SDS011;7557;51.698;3.942;2022-08-19T07:46:27;6.68;;;5.15;;
9222;SDS011;7557;51.698;3.942;2022-08-19T07:48:56;6.10;;;4.32;;
9222;SDS011;7557;51.698;3.942;2022-08-19T07:51:26;5.55;;;5.05;;
9222;SDS011;7557;51.698;3.942;2022-08-19T07:53:54;8.48;;;5.28;;
9222;SDS011;7557;51.698;3.942;2022-08-19T07:56:22;5.78;;;5.40;;
9222;SDS011;7557;51.698;3.942;2022-08-19T07:58:50;6.03;;;5.47;;
9222;SDS011;7557;51.698;3.942;2022-08-19T08:04:07;6.05;;;4.70;;
9222;SDS011;7557;51.698;3.942;2022-08-19T08:06:54;4.55;;;3.53;;
9222;SDS011;7557;51.698;3.942;2022-08-19T08:09:40;3.65;;;3.45;;
9222;SDS011;7557;51.698;3.942;2022-08-19T08:12:09;3.30;;;3.10;;
9222;SDS011;7557;51.698;3.942;2022-08-19T08:14:40;4.10;;;3.47;;
9222;SDS011;7557;51.698;3.942;2022-08-19T08:17:11;3.47;;;2.72;;
9222;SDS011;7557;51.698;3.942;2022-08-19T08:19:39;4.35;;;2.92;;
9222;SDS011;7557;51.698;3.942;2022-08-19T08:22:09;3.05;;;2.85;;
9222;SDS011;7557;51.698;3.942;2022-08-19T08:25:00;2.60;;;2.50;;
9222;SDS011;7557;51.698;3.942;2022-08-19T08:27:29;2.80;;;2.58;;
9222;SDS011;7557;51.698;3.942;2022-08-19T08:29:57;2.42;;;2.33;;
9222;SDS011;7557;51.698;3.942;2022-08-19T08:32:24;2.15;;;2.05;;
9222;SDS011;7557;51.698;3.942;2022-08-19T08:34:52;2.50;;;2.40;;
9222;SDS011;7557;51.698;3.942;2022-08-19T08:37:21;2.60;;;2.40;;
9222;SDS011;7557;51.698;3.942;2022-08-19T08:39:49;2.63;;;2.33;;
9222;SDS011;7557;51.698;3.942;2022-08-19T08:42:17;3.15;;;2.95;;
9222;SDS011;7557;51.698;3.942;2022-08-19T08:44:52;3.47;;;2.30;;
9222;SDS011;7557;51.698;3.942;2022-08-19T08:47:25;2.70;;;2.50;;
9222;SDS011;7557;51.698;3.942;2022-08-19T08:49:59;3.05;;;2.67;;
9222;SDS011;7557;51.698;3.942;2022-08-19T08:52:33;2.80;;;2.60;;
9222;SDS011;7557;51.698;3.942;2022-08-19T08:55:04;3.63;;;2.78;;
9222;SDS011;7557;51.698;3.942;2022-08-19T08:57:36;2.90;;;2.72;;
9222;SDS011;7557;51.698;3.942;2022-08-19T09:00:07;3.55;;;2.67;;
9222;SDS011;7557;51.698;3.942;2022-08-19T09:07:42;3.92;;;3.03;;
9222;SDS011;7557;51.698;3.942;2022-08-19T09:10:18;2.47;;;2.28;;
9222;SDS011;7557;51.698;3.942;2022-08-19T09:12:55;4.55;;;2.28;;
9222;SDS011;7557;51.698;3.942;2022-08-19T09:15:32;2.50;;;2.22;;
9222;SDS011;7557;51.698;3.942;2022-08-19T09:18:03;2.63;;;2.42;;
9222;SDS011;7557;51.698;3.942;2022-08-19T09:20:31;2.20;;;2.05;;
9222;SDS011;7557;51.698;3.942;2022-08-19T09:23:00;2.45;;;2.25;;
9222;SDS011;7557;51.698;3.942;2022-08-19T09:25:29;2.45;;;2.15;;
9222;SDS011;7557;51.698;3.942;2022-08-19T09:27:59;2.80;;;2.10;;
9222;SDS011;7557;51.698;3.942;2022-08-19T09:30:29;2.60;;;2.40;;
9222;SDS011;7557;51.698;3.942;2022-08-19T09:32:58;3.40;;;2.10;;
9222;SDS011;7557;51.698;3.942;2022-08-19T09:35:27;2.15;;;2.05;;
9222;SDS011;7557;51.698;3.942;2022-08-19T09:37:56;2.10;;;1.90;;
9222;SDS011;7557;51.698;3.942;2022-08-19T09:40:26;2.75;;;2.50;;
9222;SDS011;7557;51.698;3.942;2022-08-19T09:42:55;2.47;;;2.28;;
9222;SDS011;7557;51.698;3.942;2022-08-19T09:45:22;2.38;;;2.17;;
9222;SDS011;7557;51.698;3.942;2022-08-19T09:47:50;2.20;;;2.10;;
9222;SDS011;7557;51.698;3.942;2022-08-19T09:50:19;2.40;;;2.20;;
9222;SDS011;7557;51.698;3.942;2022-08-19T09:52:47;2.03;;;1.92;;
9222;SDS011;7557;51.698;3.942;2022-08-19T09:55:15;2.38;;;2.17;;
9222;SDS011;7557;51.698;3.942;2022-08-19T09:57:44;2.50;;;2.30;;
9222;SDS011;7557;51.698;3.942;2022-08-19T10:00:12;2.35;;;1.80;;
9222;SDS011;7557;51.698;3.942;2022-08-19T10:02:39;2.20;;;2.00;;
9222;SDS011;7557;51.698;3.942;2022-08-19T10:05:07;1.80;;;1.70;;
9222;SDS011;7557;51.698;3.942;2022-08-19T10:07:52;2.00;;;1.90;;
9222;SDS011;7557;51.698;3.942;2022-08-19T10:10:19;2.33;;;2.08;;
9222;SDS011;7557;51.698;3.942;2022-08-19T10:12:48;1.90;;;1.80;;
9222;SDS011;7557;51.698;3.942;2022-08-19T10:15:18;3.58;;;2.20;;
9222;SDS011;7557;51.698;3.942;2022-08-19T10:17:46;2.55;;;1.65;;
9222;SDS011;7557;51.698;3.942;2022-08-19T10:20:13;1.80;;;1.70;;
9222;SDS011;7557;51.698;3.942;2022-08-19T10:22:41;1.70;;;1.60;;
9222;SDS011;7557;51.698;3.942;2022-08-19T10:25:08;1.63;;;1.50;;
9222;SDS011;7557;51.698;3.942;2022-08-19T10:27:36;3.17;;;2.03;;
9222;SDS011;7557;51.698;3.942;2022-08-19T10:30:06;1.95;;;1.85;;
9222;SDS011;7557;51.698;3.942;2022-08-19T10:32:34;1.92;;;1.75;;
9222;SDS011;7557;51.698;3.942;2022-08-19T10:35:02;1.90;;;1.80;;
9222;SDS011;7557;51.698;3.942;2022-08-19T10:37:33;2.05;;;1.95;;
9222;SDS011;7557;51.698;3.942;2022-08-19T10:40:02;2.08;;;1.98;;
9222;SDS011;7557;51.698;3.942;2022-08-19T10:42:32;1.77;;;1.67;;
9222;SDS011;7557;51.698;3.942;2022-08-19T10:44:59;1.83;;;1.63;;
9222;SDS011;7557;51.698;3.942;2022-08-19T10:47:28;1.60;;;1.50;;
9222;SDS011;7557;51.698;3.942;2022-08-19T10:49:56;2.95;;;2.17;;
9222;SDS011;7557;51.698;3.942;2022-08-19T10:52:40;3.33;;;1.73;;
9222;SDS011;7557;51.698;3.942;2022-08-19T10:55:09;1.98;;;1.83;;
9222;SDS011;7557;51.698;3.942;2022-08-19T10:57:53;2.00;;;1.90;;
9222;SDS011;7557;51.698;3.942;2022-08-19T11:00:22;1.80;;;1.70;;
9222;SDS011;7557;51.698;3.942;2022-08-19T11:02:52;1.88;;;1.77;;
9222;SDS011;7557;51.698;3.942;2022-08-19T11:05:20;2.22;;;1.75;;
9222;SDS011;7557;51.698;3.942;2022-08-19T11:07:48;1.13;;;1.13;;
9222;SDS011;7557;51.698;3.942;2022-08-19T11:10:16;1.33;;;1.23;;
9222;SDS011;7557;51.698;3.942;2022-08-19T11:12:45;1.50;;;1.40;;
9222;SDS011;7557;51.698;3.942;2022-08-19T11:15:13;1.10;;;1.10;;
9222;SDS011;7557;51.698;3.942;2022-08-19T11:17:40;1.13;;;1.10;;
9222;SDS011;7557;51.698;3.942;2022-08-19T11:20:11;1.50;;;1.50;;
9222;SDS011;7557;51.698;3.942;2022-08-19T11:22:39;1.50;;;1.20;;
9222;SDS011;7557;51.698;3.942;2022-08-19T11:25:08;1.27;;;1.17;;
9222;SDS011;7557;51.698;3.942;2022-08-19T11:27:37;1.20;;;1.20;;
9222;SDS011;7557;51.698;3.942;2022-08-19T11:30:08;1.48;;;1.48;;
9222;SDS011;7557;51.698;3.942;2022-08-19T11:32:36;1.90;;;1.35;;
9222;SDS011;7557;51.698;3.942;2022-08-19T11:35:04;1.20;;;1.20;;
9222;SDS011;7557;51.698;3.942;2022-08-19T11:37:34;1.73;;;1.33;;
9222;SDS011;7557;51.698;3.942;2022-08-19T11:40:03;1.08;;;1.08;;
9222;SDS011;7557;51.698;3.942;2022-08-19T11:42:32;1.30;;;1.20;;
9222;SDS011;7557;51.698;3.942;2022-08-19T11:45:17;1.50;;;1.40;;
9222;SDS011;7557;51.698;3.942;2022-08-19T11:47:44;2.22;;;1.30;;
9222;SDS011;7557;51.698;3.942;2022-08-19T11:50:12;1.58;;;1.48;;
9222;SDS011;7557;51.698;3.942;2022-08-19T11:52:41;1.50;;;1.40;;
9222;SDS011;7557;51.698;3.942;2022-08-19T11:55:10;1.85;;;1.58;;
9222;SDS011;7557;51.698;3.942;2022-08-19T11:57:38;1.95;;;1.85;;
9222;SDS011;7557;51.698;3.942;2022-08-19T12:00:06;3.30;;;2.00;;
9222;SDS011;7557;51.698;3.942;2022-08-19T12:02:36;4.00;;;1.80;;
9222;SDS011;7557;51.698;3.942;2022-08-19T12:05:04;2.28;;;1.77;;
9222;SDS011;7557;51.698;3.942;2022-08-19T12:07:32;3.35;;;1.80;;
9222;SDS011;7557;51.698;3.942;2022-08-19T12:10:02;3.25;;;1.83;;
9222;SDS011;7557;51.698;3.942;2022-08-19T12:12:30;2.00;;;1.80;;
9222;SDS011;7557;51.698;3.942;2022-08-19T12:14:58;2.80;;;2.28;;
9222;SDS011;7557;51.698;3.942;2022-08-19T12:17:26;3.53;;;1.77;;
9222;SDS011;7557;51.698;3.942;2022-08-19T12:19:53;4.70;;;2.13;;
9222;SDS011;7557;51.698;3.942;2022-08-19T12:22:21;3.28;;;1.90;;
9222;SDS011;7557;51.698;3.942;2022-08-19T12:24:49;4.07;;;2.65;;
9222;SDS011;7557;51.698;3.942;2022-08-19T12:27:19;4.07;;;1.90;;
9222;SDS011;7557;51.698;3.942;2022-08-19T12:29:47;1.83;;;1.63;;
9222;SDS011;7557;51.698;3.942;2022-08-19T12:32:14;2.55;;;1.60;;
9222;SDS011;7557;51.698;3.942;2022-08-19T12:34:42;4.35;;;1.67;;
9222;SDS011;7557;51.698;3.942;2022-08-19T12:37:12;3.67;;;1.70;;
9222;SDS011;7557;51.698;3.942;2022-08-19T12:39:41;2.00;;;1.63;;
9222;SDS011;7557;51.698;3.942;2022-08-19T12:42:09;2.72;;;2.30;;
9222;SDS011;7557;51.698;3.942;2022-08-19T12:44:39;2.35;;;2.05;;
9222;SDS011;7557;51.698;3.942;2022-08-19T12:47:09;5.28;;;2.45;;
9222;SDS011;7557;51.698;3.942;2022-08-19T12:49:38;3.85;;;2.40;;
9222;SDS011;7557;51.698;3.942;2022-08-19T12:52:06;3.38;;;2.53;;
9222;SDS011;7557;51.698;3.942;2022-08-19T12:54:35;6.28;;;2.45;;
9222;SDS011;7557;51.698;3.942;2022-08-19T12:57:04;3.95;;;2.25;;
9222;SDS011;7557;51.698;3.942;2022-08-19T12:59:33;1.77;;;1.67;;
9222;SDS011;7557;51.698;3.942;2022-08-19T13:02:03;1.75;;;1.55;;
9222;SDS011;7557;51.698;3.942;2022-08-19T13:04:31;2.15;;;2.00;;
9222;SDS011;7557;51.698;3.942;2022-08-19T13:07:00;2.20;;;2.00;;
9222;SDS011;7557;51.698;3.942;2022-08-19T13:09:27;2.53;;;2.33;;
9222;SDS011;7557;51.698;3.942;2022-08-19T13:11:55;2.40;;;2.20;;
9222;SDS011;7557;51.698;3.942;2022-08-19T13:14:22;3.08;;;2.63;;
9222;SDS011;7557;51.698;3.942;2022-08-19T13:16:50;1.73;;;1.63;;
9222;SDS011;7557;51.698;3.942;2022-08-19T13:19:19;2.22;;;1.10;;
9222;SDS011;7557;51.698;3.942;2022-08-19T13:21:49;0.68;;;0.68;;
9222;SDS011;7557;51.698;3.942;2022-08-19T13:24:16;1.00;;;1.00;;
9222;SDS011;7557;51.698;3.942;2022-08-19T13:26:44;0.80;;;0.80;;
9222;SDS011;7557;51.698;3.942;2022-08-19T13:29:11;1.42;;;1.38;;
9222;SDS011;7557;51.698;3.942;2022-08-19T13:31:56;1.92;;;1.23;;
9222;SDS011;7557;51.698;3.942;2022-08-19T13:34:43;1.52;;;1.42;;
9222;SDS011;7557;51.698;3.942;2022-08-19T13:37:12;1.65;;;1.50;;
9222;SDS011;7557;51.698;3.942;2022-08-19T13:39:40;2.78;;;1.95;;
9222;SDS011;7557;51.698;3.942;2022-08-19T13:42:07;2.83;;;1.95;;
9222;SDS011;7557;51.698;3.942;2022-08-19T13:44:35;6.68;;;2.40;;
9222;SDS011;7557;51.698;3.942;2022-08-19T13:47:04;5.60;;;3.40;;
9222;SDS011;7557;51.698;3.942;2022-08-19T13:49:33;4.63;;;2.90;;
9222;SDS011;7557;51.698;3.942;2022-08-19T13:52:04;5.90;;;2.50;;
9222;SDS011;7557;51.698;3.942;2022-08-19T13:54:32;5.28;;;2.83;;
9222;SDS011;7557;51.698;3.942;2022-08-19T13:57:00;3.47;;;2.60;;
9222;SDS011;7557;51.698;3.942;2022-08-19T13:59:27;4.00;;;2.67;;
9222;SDS011;7557;51.698;3.942;2022-08-19T14:01:57;2.97;;;2.45;;
9222;SDS011;7557;51.698;3.942;2022-08-19T14:04:24;3.63;;;2.40;;
9222;SDS011;7557;51.698;3.942;2022-08-19T14:06:52;3.22;;;2.42;;
9222;SDS011;7557;51.698;3.942;2022-08-19T14:09:21;2.53;;;2.03;;
9222;SDS011;7557;51.698;3.942;2022-08-19T14:11:48;2.85;;;2.50;;
9222;SDS011;7557;51.698;3.942;2022-08-19T14:14:15;2.80;;;2.30;;
9222;SDS011;7557;51.698;3.942;2022-08-19T14:16:43;4.40;;;2.50;;
9222;SDS011;7557;51.698;3.942;2022-08-19T14:19:10;2.42;;;2.25;;
9222;SDS011;7557;51.698;3.942;2022-08-19T14:21:37;4.95;;;2.40;;
9222;SDS011;7557;51.698;3.942;2022-08-19T14:24:06;5.13;;;2.92;;
9222;SDS011;7557;51.698;3.942;2022-08-19T14:26:35;2.72;;;2.40;;
9222;SDS011;7557;51.698;3.942;2022-08-19T14:29:03;2.03;;;1.70;;
9222;SDS011;7557;51.698;3.942;2022-08-19T14:31:30;1.55;;;1.50;;
9222;SDS011;7557;51.698;3.942;2022-08-19T14:33:58;1.70;;;1.60;;
9222;SDS011;7557;51.698;3.942;2022-08-19T14:36:25;1.77;;;1.67;;
9222;SDS011;7557;51.698;3.942;2022-08-19T14:38:52;1.55;;;1.45;;
9222;SDS011;7557;51.698;3.942;2022-08-19T14:41:20;0.80;;;0.80;;
9222;SDS011;7557;51.698;3.942;2022-08-19T14:43:51;2.03;;;0.80;;
9222;SDS011;7557;51.698;3.942;2022-08-19T14:46:20;1.50;;;1.30;;
9222;SDS011;7557;51.698;3.942;2022-08-19T14:48:49;1.80;;;1.20;;
9222;SDS011;7557;51.698;3.942;2022-08-19T14:51:16;1.60;;;1.48;;
9222;SDS011;7557;51.698;3.942;2022-08-19T14:53:44;2.38;;;1.33;;
9222;SDS011;7557;51.698;3.942;2022-08-19T14:56:14;1.63;;;1.52;;
9222;SDS011;7557;51.698;3.942;2022-08-19T14:58:43;1.40;;;1.40;;
9222;SDS011;7557;51.698;3.942;2022-08-19T15:01:12;1.65;;;1.45;;
9222;SDS011;7557;51.698;3.942;2022-08-19T15:03:40;2.20;;;1.73;;
9222;SDS011;7557;51.698;3.942;2022-08-19T15:06:07;1.88;;;1.77;;
9222;SDS011;7557;51.698;3.942;2022-08-19T15:08:36;1.80;;;1.70;;
9222;SDS011;7557;51.698;3.942;2022-08-19T15:11:07;1.73;;;1.63;;
9222;SDS011;7557;51.698;3.942;2022-08-19T15:13:36;1.75;;;1.40;;
9222;SDS011;7557;51.698;3.942;2022-08-19T15:16:04;1.50;;;1.40;;
9222;SDS011;7557;51.698;3.942;2022-08-19T15:18:33;1.83;;;1.38;;
9222;SDS011;7557;51.698;3.942;2022-08-19T15:21:00;2.08;;;1.90;;
9222;SDS011;7557;51.698;3.942;2022-08-19T15:23:28;1.95;;;1.77;;
9222;SDS011;7557;51.698;3.942;2022-08-19T15:25:56;2.28;;;2.08;;
9222;SDS011;7557;51.698;3.942;2022-08-19T15:28:24;2.65;;;2.50;;